Time;durP1;ratioP1;P1;durP2;ratioP2;P2;SDS_P1;SDS_P2;PMS_P1;PMS_P2;Temp;Humidity;BMP_temperature;BMP_pressure;BME280_temperature;BME280_humidity;BME280_pressure;Samples;Min_cycle;Max_cycle;Signal;HPM_P1;HPM_P2
2023/04/30 00:02:22;;;;;;;10.23;2.95;;;;;;;7.82;100.00;101502.09;5111503;28;20094;-83
2023/04/30 00:04:49;;;;;;;14.50;3.35;;;;;;;7.93;100.00;101528.88;5109711;28;20056;-81
2023/04/30 00:07:16;;;;;;;10.07;3.15;;;;;;;8.07;100.00;101532.16;5113804;28;20370;-82
2023/04/30 00:09:43;;;;;;;14.10;3.70;;;;;;;7.93;100.00;101523.66;5113997;28;20097;-82
2023/04/30 00:12:10;;;;;;;10.95;3.90;;;;;;;7.65;100.00;101497.09;5110970;28;20039;-83
2023/04/30 00:14:36;;;;;;;16.85;3.70;;;;;;;7.58;100.00;101478.09;5100853;28;20512;-82
2023/04/30 00:17:03;;;;;;;8.20;2.75;;;;;;;8.03;100.00;101521.81;5107251;28;20043;-83
2023/04/30 00:19:30;;;;;;;13.93;3.53;;;;;;;7.36;100.00;101431.47;5102733;28;20054;-83
2023/04/30 00:21:57;;;;;;;11.80;3.53;;;;;;;7.83;100.00;101522.09;5110638;28;20111;-83
2023/04/30 00:24:24;;;;;;;10.73;3.03;;;;;;;7.46;100.00;101452.19;5111896;28;20051;-84
2023/04/30 00:26:50;;;;;;;13.32;3.47;;;;;;;7.50;100.00;101472.13;5113470;27;20059;-83
2023/04/30 00:29:17;;;;;;;13.82;3.08;;;;;;;7.26;100.00;101427.28;5112810;28;20130;-84
2023/04/30 00:31:44;;;;;;;11.35;3.58;;;;;;;7.44;100.00;101440.91;5111428;28;20048;-82
2023/04/30 00:34:11;;;;;;;9.73;2.60;;;;;;;7.59;100.00;101443.31;5109783;28;20118;-82
2023/04/30 00:36:39;;;;;;;10.88;3.17;;;;;;;7.48;100.00;101461.72;5113093;28;20400;-83
2023/04/30 00:39:06;;;;;;;12.20;3.85;;;;;;;7.76;100.00;101511.72;5112319;28;20400;-84
2023/04/30 00:41:34;;;;;;;11.82;3.70;;;;;;;7.79;100.00;101496.06;5103178;28;20137;-83
2023/04/30 00:44:01;;;;;;;10.00;3.30;;;;;;;7.91;100.00;101487.19;5108987;28;20439;-84
2023/04/30 00:46:28;;;;;;;12.00;3.28;;;;;;;7.35;100.00;101416.72;5109849;28;20047;-83
2023/04/30 00:48:55;;;;;;;10.07;2.88;;;;;;;7.64;100.00;101456.31;5112256;28;20044;-83
2023/04/30 00:51:22;;;;;;;13.88;3.30;;;;;;;7.64;100.00;101461.50;5106537;28;20048;-83
2023/04/30 00:53:49;;;;;;;16.90;3.45;;;;;;;7.77;100.00;101463.06;5097635;28;20048;-83
2023/04/30 00:56:16;;;;;;;11.00;3.40;;;;;;;7.55;100.00;101433.84;5094766;28;20048;-84
2023/04/30 00:58:44;;;;;;;12.82;2.92;;;;;;;7.60;100.00;101429.41;5112912;28;20044;-83
2023/04/30 01:01:11;;;;;;;19.25;4.40;;;;;;;7.56;100.00;101444.25;5110030;28;20382;-83
2023/04/30 01:03:38;;;;;;;9.63;2.80;;;;;;;7.68;100.00;101457.97;5109903;28;20366;-82
2023/04/30 01:06:05;;;;;;;13.75;3.42;;;;;;;7.77;100.00;101452.63;5105292;28;20056;-82
2023/04/30 01:08:32;;;;;;;11.55;3.05;;;;;;;7.92;100.00;101469.81;5109024;28;20464;-83
2023/04/30 01:11:20;;;;;;;14.90;3.15;;;;;;;7.92;100.00;101475.88;5111137;28;20044;-83
2023/04/30 01:14:02;;;;;;;13.10;3.58;;;;;;;7.49;100.00;101407.84;5110558;28;20470;-83
2023/04/30 01:16:35;;;;;;;14.65;3.53;;;;;;;7.95;100.00;101459.31;5111224;28;20051;-82
2023/04/30 01:19:14;;;;;;;12.27;3.22;;;;;;;8.04;100.00;101466.13;5111128;28;20109;-82
2023/04/30 01:21:42;;;;;;;14.90;3.78;;;;;;;7.94;100.00;101434.97;5102677;28;20070;-83
2023/04/30 01:24:18;;;;;;;13.73;4.20;;;;;;;7.93;100.00;101456.75;5112054;28;20070;-83
2023/04/30 01:27:05;;;;;;;12.65;3.90;;;;;;;8.02;100.00;101455.75;5112290;28;20048;-83
2023/04/30 01:29:33;;;;;;;14.43;4.93;;;;;;;7.75;100.00;101439.59;5124509;27;20048;-84
2023/04/30 01:32:02;;;;;;;10.05;2.53;;;;;;;7.85;100.00;101416.88;5104487;28;20050;-83
2023/04/30 01:34:29;;;;;;;15.25;4.43;;;;;;;7.33;100.00;101378.53;5113740;28;20044;-84
2023/04/30 01:37:15;;;;;;;12.98;3.65;;;;;;;7.95;100.00;101454.97;5111939;28;20492;-83
2023/04/30 01:40:00;;;;;;;14.15;4.18;;;;;;;7.72;100.00;101394.47;5103507;28;20040;-83
2023/04/30 01:42:40;;;;;;;15.02;3.88;;;;;;;7.94;100.00;101449.78;5110338;28;20048;-84
2023/04/30 01:45:37;;;;;;;13.57;4.68;;;;;;;7.93;100.00;101446.31;5106661;28;20050;-83
2023/04/30 01:48:09;;;;;;;16.67;3.67;;;;;;;7.97;100.00;101450.59;5099228;28;20052;-82
2023/04/30 01:50:52;;;;;;;12.23;3.17;;;;;;;7.91;100.00;101423.75;5111894;28;20048;-83
2023/04/30 01:53:41;;;;;;;13.52;4.18;;;;;;;8.06;100.00;101449.59;5111080;28;20423;-84
2023/04/30 01:56:43;;;;;;;13.30;4.20;;;;;;;8.12;100.00;101438.19;5115116;28;20079;-84
2023/04/30 01:59:13;;;;;;;10.90;3.28;;;;;;;8.07;100.00;101429.56;5114038;28;20059;-85
2023/04/30 02:01:40;;;;;;;13.10;3.28;;;;;;;7.96;100.00;101395.84;5110477;28;20059;-84
2023/04/30 02:04:06;;;;;;;20.00;4.47;;;;;;;7.73;100.00;101377.97;5114672;28;20119;-84
2023/04/30 02:06:33;;;;;;;12.20;3.03;;;;;;;7.95;100.00;101389.78;5115561;28;20054;-84
2023/04/30 02:09:05;;;;;;;16.23;4.10;;;;;;;7.72;100.00;101363.19;5114401;28;20047;-83
2023/04/30 02:11:31;;;;;;;13.35;3.70;;;;;;;7.78;100.00;101368.31;5109071;28;20561;-83
2023/04/30 02:13:58;;;;;;;18.67;4.45;;;;;;;8.12;100.00;101414.72;5114456;28;20039;-83
2023/04/30 02:16:25;;;;;;;11.10;3.38;;;;;;;7.71;100.00;101359.75;5115617;28;20374;-83
2023/04/30 02:18:51;;;;;;;13.27;3.38;;;;;;;8.18;100.00;101406.81;5113937;28;20047;-82
2023/04/30 02:21:18;;;;;;;21.77;4.43;;;;;;;8.04;100.00;101404.41;5113412;28;20125;-84
2023/04/30 02:23:45;;;;;;;12.63;3.30;;;;;;;7.99;100.00;101354.09;5114402;28;20100;-82
2023/04/30 02:26:12;;;;;;;26.20;4.93;;;;;;;7.95;100.00;101374.13;5110575;28;20047;-84
2023/04/30 02:28:39;;;;;;;14.90;3.80;;;;;;;7.86;100.00;101358.66;5109450;28;20047;-82
2023/04/30 02:31:06;;;;;;;11.80;3.22;;;;;;;7.75;100.00;101332.72;5114919;28;20166;-83
2023/04/30 02:33:32;;;;;;;13.32;3.78;;;;;;;7.91;100.00;101348.97;5114497;28;20036;-84
2023/04/30 02:35:59;;;;;;;13.32;3.30;;;;;;;7.95;100.00;101337.63;5115013;28;20051;-82
2023/04/30 02:38:26;;;;;;;10.25;3.20;;;;;;;8.26;100.00;101380.56;5114281;28;20047;-82
2023/04/30 02:40:53;;;;;;;14.43;4.10;;;;;;;7.75;100.00;101327.50;5114212;28;20052;-83
2023/04/30 02:43:20;;;;;;;10.48;3.63;;;;;;;7.80;100.00;101330.91;5109477;28;20492;-83
2023/04/30 02:45:47;;;;;;;16.40;4.55;;;;;;;7.68;100.00;101318.06;5106070;28;20043;-84
2023/04/30 02:48:14;;;;;;;9.90;3.15;;;;;;;7.95;100.00;101334.13;5107991;28;20048;-81
2023/04/30 02:50:41;;;;;;;17.08;4.97;;;;;;;7.75;100.00;101313.63;5109065;28;20089;-84
2023/04/30 02:53:07;;;;;;;10.98;3.65;;;;;;;7.71;100.00;101304.16;5113005;28;20047;-82
2023/04/30 02:55:34;;;;;;;15.63;4.28;;;;;;;7.93;100.00;101339.41;5113887;28;20051;-83
2023/04/30 02:58:01;;;;;;;16.45;4.32;;;;;;;7.84;100.00;101318.69;5114603;28;20052;-83
2023/04/30 03:00:27;;;;;;;20.45;4.15;;;;;;;7.90;100.00;101329.03;5107244;28;20050;-82
2023/04/30 03:02:54;;;;;;;13.80;3.90;;;;;;;7.95;100.00;101324.59;5109362;28;20043;-83
2023/04/30 03:05:23;;;;;;;19.98;4.53;;;;;;;8.14;100.00;101379.91;5111009;28;20047;-84
2023/04/30 03:07:49;;;;;;;14.95;3.83;;;;;;;7.84;100.00;101305.66;5118838;27;20062;-83
2023/04/30 03:10:17;;;;;;;12.35;3.72;;;;;;;8.11;100.00;101327.78;5113760;28;20052;-82
2023/04/30 03:12:44;;;;;;;15.40;4.30;;;;;;;7.93;100.00;101328.97;5109252;28;20497;-83
2023/04/30 03:15:11;;;;;;;13.30;3.72;;;;;;;7.67;100.00;101287.69;5107891;28;20051;-84
2023/04/30 03:17:38;;;;;;;17.45;3.92;;;;;;;7.92;100.00;101319.41;5114452;28;20051;-83
2023/04/30 03:20:06;;;;;;;15.55;5.50;;;;;;;7.59;100.00;101300.84;5112836;28;20044;-83
2023/04/30 03:22:32;;;;;;;13.13;4.43;;;;;;;7.91;100.00;101329.88;5112195;28;20422;-83
2023/04/30 03:24:59;;;;;;;12.13;3.90;;;;;;;8.13;100.00;101314.72;5114297;28;20047;-83
2023/04/30 03:27:26;;;;;;;14.82;4.07;;;;;;;8.37;100.00;101342.09;5114126;28;20047;-83
2023/04/30 03:29:53;;;;;;;10.05;2.80;;;;;;;8.02;100.00;101265.38;5112766;28;20092;-83
2023/04/30 03:32:20;;;;;;;11.32;3.38;;;;;;;8.22;100.00;101308.47;5112220;28;20820;-83
2023/04/30 03:34:47;;;;;;;13.63;4.53;;;;;;;8.30;100.00;101311.78;5112674;28;20089;-83
2023/04/30 03:37:13;;;;;;;16.77;5.68;;;;;;;8.18;100.00;101325.94;5113089;28;20660;-83
2023/04/30 03:39:40;;;;;;;13.05;3.55;;;;;;;7.90;100.00;101256.00;5114738;28;20081;-83
2023/04/30 03:42:07;;;;;;;12.60;4.07;;;;;;;8.05;100.00;101285.31;5113532;28;20052;-84
2023/04/30 03:44:33;;;;;;;11.27;3.95;;;;;;;7.86;100.00;101271.72;5112470;28;20051;-83
2023/04/30 03:47:00;;;;;;;18.42;4.70;;;;;;;7.48;100.00;101224.59;5113181;27;20058;-83
2023/04/30 03:49:27;;;;;;;15.50;3.95;;;;;;;7.96;100.00;101302.81;5112346;28;20389;-82
2023/04/30 03:51:54;;;;;;;18.05;4.22;;;;;;;7.96;100.00;101281.97;5111705;28;20135;-83
2023/04/30 03:54:20;;;;;;;14.30;4.50;;;;;;;7.93;100.00;101265.50;5112330;28;20036;-83
2023/04/30 03:56:47;;;;;;;18.08;4.93;;;;;;;8.05;100.00;101298.34;5113041;28;20044;-83
2023/04/30 03:59:14;;;;;;;17.77;4.40;;;;;;;7.83;100.00;101246.59;5108741;28;20043;-83
2023/04/30 04:01:41;;;;;;;12.35;4.18;;;;;;;8.24;100.00;101311.91;5109214;28;20040;-83
2023/04/30 04:04:08;;;;;;;15.13;3.97;;;;;;;8.17;100.00;101287.69;5109598;28;20569;-84
2023/04/30 04:06:35;;;;;;;22.45;5.90;;;;;;;7.91;100.00;101277.72;5104870;28;20143;-83
2023/04/30 04:09:03;;;;;;;15.25;4.78;;;;;;;7.74;100.00;101241.53;5100326;28;20131;-82
2023/04/30 04:11:29;;;;;;;18.15;4.82;;;;;;;8.12;100.00;101284.31;5104488;28;20043;-82
2023/04/30 04:13:56;;;;;;;17.60;4.85;;;;;;;7.91;100.00;101260.31;5109041;28;20043;-82
2023/04/30 04:16:23;;;;;;;15.82;5.38;;;;;;;7.92;100.00;101251.63;5093355;28;20044;-82
2023/04/30 04:18:50;;;;;;;15.68;4.47;;;;;;;8.04;100.00;101266.19;5097121;28;20047;-80
2023/04/30 04:21:17;;;;;;;16.88;4.78;;;;;;;8.25;100.00;101309.28;5105934;28;20051;-82
2023/04/30 04:23:44;;;;;;;18.67;4.82;;;;;;;7.87;100.00;101239.56;5105609;28;20051;-83
2023/04/30 04:26:11;;;;;;;13.13;3.83;;;;;;;8.41;100.00;101309.84;5108936;28;20105;-84
2023/04/30 04:28:38;;;;;;;18.05;3.75;;;;;;;8.14;100.00;101266.88;5113189;28;20640;-84
2023/04/30 04:31:04;;;;;;;20.20;5.05;;;;;;;8.02;100.00;101241.03;5097444;28;20097;-84
2023/04/30 04:33:31;;;;;;;22.30;6.22;;;;;;;8.05;100.00;101261.84;5107355;28;20043;-86
2023/04/30 04:35:58;;;;;;;15.82;4.78;;;;;;;8.17;100.00;101285.06;5107440;28;20055;-85
2023/04/30 04:38:25;;;;;;;19.40;4.80;;;;;;;8.06;100.00;101287.03;5111225;28;20529;-85
2023/04/30 04:40:53;;;;;;;20.23;5.28;;;;;;;7.89;100.00;101245.59;5097192;28;20493;-85
2023/04/30 04:43:20;;;;;;;19.17;5.72;;;;;;;8.20;100.00;101303.28;5111054;28;20054;-85
2023/04/30 04:45:47;;;;;;;23.55;4.78;;;;;;;8.01;100.00;101252.34;5106341;28;20477;-86
2023/04/30 04:48:14;;;;;;;18.67;4.70;;;;;;;8.26;100.00;101278.81;5093555;28;20055;-85
2023/04/30 04:50:41;;;;;;;25.00;5.78;;;;;;;7.93;100.00;101234.22;5107096;28;20059;-84
2023/04/30 04:53:07;;;;;;;15.10;5.57;;;;;;;8.06;100.00;101261.81;5104716;28;20052;-85
2023/04/30 04:55:35;;;;;;;16.48;5.10;;;;;;;7.73;100.00;101178.09;5108368;28;20062;-85
2023/04/30 04:58:01;;;;;;;16.88;5.50;;;;;;;7.84;100.00;101229.19;5109317;28;20051;-83
2023/04/30 05:00:28;;;;;;;19.92;5.70;;;;;;;7.96;100.00;101258.50;5100129;28;20046;-84
2023/04/30 05:02:55;;;;;;;17.33;4.65;;;;;;;7.80;100.00;101231.84;5104646;28;20052;-84
2023/04/30 05:05:22;;;;;;;20.45;6.07;;;;;;;8.10;100.00;101267.81;5109396;28;20051;-84
2023/04/30 05:07:51;;;;;;;21.75;5.35;;;;;;;7.68;100.00;101205.16;5112764;28;20058;-84
2023/04/30 05:10:18;;;;;;;17.00;4.22;;;;;;;7.85;100.00;101207.47;5117066;28;20059;-85
2023/04/30 05:12:44;;;;;;;18.33;4.82;;;;;;;7.93;100.00;101214.25;5114112;28;20046;-84
2023/04/30 05:15:11;;;;;;;19.75;5.05;;;;;;;8.20;100.00;101251.13;5103594;28;20087;-84
2023/04/30 05:17:38;;;;;;;17.98;3.83;;;;;;;8.17;100.00;101252.00;5117028;28;20703;-85
2023/04/30 05:20:06;;;;;;;22.08;7.15;;;;;;;7.92;100.00;101228.16;5116091;28;20132;-84
2023/04/30 05:22:33;;;;;;;20.50;6.70;;;;;;;8.22;100.00;101238.91;5115105;28;20474;-84
2023/04/30 05:25:00;;;;;;;23.23;7.13;;;;;;;8.05;100.00;101218.34;5112769;28;20052;-84
2023/04/30 05:27:26;;;;;;;21.65;5.97;;;;;;;8.20;100.00;101222.41;5112331;28;20052;-84
2023/04/30 05:29:53;;;;;;;16.40;5.65;;;;;;;8.44;100.00;101251.53;5107164;28;20062;-85
2023/04/30 05:32:35;;;;;;;25.70;6.68;;;;;;;8.13;100.00;101228.66;5109182;28;20401;-86
2023/04/30 05:35:03;;;;;;;42.85;8.35;;;;;;;7.87;100.00;101200.47;5117458;28;20439;-84
2023/04/30 05:37:30;;;;;;;18.48;5.70;;;;;;;7.99;100.00;101195.84;5116007;28;20052;-85
2023/04/30 05:39:56;;;;;;;27.60;6.70;;;;;;;8.08;100.00;101204.41;5116755;28;20040;-84
2023/04/30 05:42:23;;;;;;;31.75;8.25;;;;;;;8.00;100.00;101201.94;5114770;28;20054;-85
2023/04/30 05:44:50;;;;;;;20.80;6.72;;;;;;;8.09;100.00;101220.03;5115462;28;20482;-84
2023/04/30 05:47:17;;;;;;;28.50;8.90;;;;;;;8.31;100.00;101248.28;5115173;28;20063;-85
2023/04/30 05:49:43;;;;;;;26.45;7.72;;;;;;;8.23;100.00;101206.69;5115544;28;20040;-85
2023/04/30 05:52:10;;;;;;;24.90;7.18;;;;;;;8.03;100.00;101162.75;5114632;27;20783;-85
2023/04/30 05:54:37;;;;;;;29.48;7.47;;;;;;;8.02;100.00;101181.91;5111726;28;20439;-84
2023/04/30 05:57:04;;;;;;;39.92;9.13;;;;;;;8.21;100.00;101194.56;5116612;28;20412;-84
2023/04/30 05:59:31;;;;;;;27.20;8.43;;;;;;;8.22;100.00;101217.19;5114968;28;20046;-84
2023/04/30 06:01:58;;;;;;;20.73;5.53;;;;;;;8.29;100.00;101198.75;5114278;28;20044;-85
2023/04/30 06:04:25;;;;;;;23.15;6.32;;;;;;;8.06;100.00;101167.91;5105964;28;20067;-84
2023/04/30 06:06:51;;;;;;;30.20;8.13;;;;;;;8.11;100.00;101186.06;5099872;28;20055;-85
2023/04/30 06:09:18;;;;;;;25.00;6.95;;;;;;;8.52;100.00;101239.19;5111606;28;20076;-85
2023/04/30 06:11:49;;;;;;;20.27;5.78;;;;;;;8.38;100.00;101215.97;5108808;28;20054;-85
2023/04/30 06:14:16;;;;;;;19.48;5.85;;;;;;;8.19;100.00;101192.00;5114890;28;20046;-86
2023/04/30 06:16:44;;;;;;;19.38;6.22;;;;;;;8.33;100.00;101182.13;5108392;28;20044;-86
2023/04/30 06:19:11;;;;;;;15.55;4.97;;;;;;;8.36;100.00;101186.44;5114387;28;20131;-86
2023/04/30 06:21:39;;;;;;;26.00;8.52;;;;;;;8.44;100.00;101228.06;5115139;28;20054;-85
2023/04/30 06:24:05;;;;;;;22.90;6.63;;;;;;;8.16;100.00;101165.97;5115819;27;20051;-85
2023/04/30 06:26:32;;;;;;;23.60;7.80;;;;;;;8.22;100.00;101196.31;5114929;28;20059;-86
2023/04/30 06:28:59;;;;;;;28.25;8.13;;;;;;;8.06;100.00;101160.09;5113721;28;20054;-86
2023/04/30 06:31:26;;;;;;;26.25;7.75;;;;;;;8.05;100.00;101194.88;5114269;28;20044;-86
2023/04/30 06:33:52;;;;;;;22.88;7.32;;;;;;;8.38;100.00;101215.13;5100866;28;20136;-86
2023/04/30 06:36:19;;;;;;;25.20;7.13;;;;;;;7.97;100.00;101142.03;5109995;28;20047;-85
2023/04/30 06:38:46;;;;;;;27.70;7.97;;;;;;;8.39;100.00;101229.84;5094213;28;20482;-85
2023/04/30 06:41:13;;;;;;;28.75;8.98;;;;;;;8.28;100.00;101186.59;5111468;28;20047;-85
2023/04/30 06:43:40;;;;;;;37.95;9.30;;;;;;;8.34;100.00;101183.00;5114812;27;20043;-85
2023/04/30 06:46:06;;;;;;;28.02;7.68;;;;;;;8.21;100.00;101182.38;5113107;28;20048;-85
2023/04/30 06:48:33;;;;;;;39.45;10.30;;;;;;;8.27;100.00;101199.66;5113942;28;20088;-85
2023/04/30 06:51:00;;;;;;;25.85;8.05;;;;;;;8.42;100.00;101193.28;5114404;28;20051;-86
2023/04/30 06:53:26;;;;;;;21.55;7.30;;;;;;;8.44;100.00;101191.53;5112820;28;20055;-86
2023/04/30 06:55:54;;;;;;;25.08;8.38;;;;;;;8.20;100.00;101195.44;5115381;28;20059;-86
2023/04/30 06:58:21;;;;;;;31.38;7.75;;;;;;;8.08;100.00;101168.75;5109722;28;20052;-86
2023/04/30 07:00:48;;;;;;;17.35;5.10;;;;;;;8.70;100.00;101235.34;5105438;28;20078;-85
2023/04/30 07:03:14;;;;;;;23.00;6.50;;;;;;;8.21;100.00;101135.44;5113322;28;20669;-86
2023/04/30 07:05:41;;;;;;;18.20;5.88;;;;;;;8.48;100.00;101196.66;5100662;28;20039;-86
2023/04/30 07:08:08;;;;;;;27.90;8.32;;;;;;;8.10;100.00;101140.88;5114009;28;20070;-85
2023/04/30 07:10:35;;;;;;;20.38;7.30;;;;;;;8.26;100.00;101157.06;5114049;28;20047;-85
2023/04/30 07:13:01;;;;;;;32.78;6.93;;;;;;;8.42;100.00;101178.50;5107245;28;20048;-85
2023/04/30 07:15:28;;;;;;;18.58;6.28;;;;;;;8.63;100.00;101178.94;5100545;28;20050;-84
2023/04/30 07:17:55;;;;;;;20.70;6.22;;;;;;;8.36;100.00;101183.84;5102239;28;20052;-81
2023/04/30 07:20:22;;;;;;;20.63;8.50;;;;;;;8.62;100.00;101208.53;5107644;28;20127;-84
2023/04/30 07:22:48;;;;;;;25.98;6.72;;;;;;;8.83;100.00;101234.16;5104795;28;20128;-83
2023/04/30 07:25:15;;;;;;;21.67;6.97;;;;;;;8.68;100.00;101217.09;5111904;28;20055;-82
2023/04/30 07:27:42;;;;;;;26.45;6.78;;;;;;;8.33;100.00;101173.44;5114344;28;20058;-83
2023/04/30 07:30:09;;;;;;;26.15;7.10;;;;;;;8.21;100.00;101138.03;5101249;28;20051;-83
2023/04/30 07:32:36;;;;;;;31.63;8.20;;;;;;;8.36;100.00;101176.84;5108642;28;20051;-84
2023/04/30 07:35:04;;;;;;;26.85;7.60;;;;;;;8.47;100.00;101178.41;5109482;28;20394;-83
2023/04/30 07:37:31;;;;;;;23.63;7.00;;;;;;;8.46;100.00;101161.03;5110894;28;20051;-85
2023/04/30 07:40:02;;;;;;;30.83;7.13;;;;;;;8.54;100.00;101169.56;5113280;28;20047;-85
2023/04/30 07:42:28;;;;;;;22.83;7.07;;;;;;;8.60;100.00;101169.41;5103157;28;20048;-85
2023/04/30 07:44:55;;;;;;;23.17;7.75;;;;;;;8.49;100.00;101132.25;5105393;28;20047;-85
2023/04/30 07:47:22;;;;;;;17.60;4.93;;;;;;;9.05;100.00;101194.50;5114344;28;20059;-84
2023/04/30 07:49:49;;;;;;;22.30;5.85;;;;;;;8.83;100.00;101161.03;5111515;28;20051;-84
2023/04/30 07:52:16;;;;;;;15.82;5.05;;;;;;;8.90;100.00;101182.66;5101533;28;20047;-84
2023/04/30 07:54:43;;;;;;;37.67;7.85;;;;;;;8.87;100.00;101201.00;5105421;28;20378;-84
2023/04/30 07:57:09;;;;;;;22.63;5.85;;;;;;;8.22;100.00;101118.91;5110584;28;20051;-84
2023/04/30 07:59:36;;;;;;;21.35;5.20;;;;;;;8.72;100.00;101182.19;5100394;28;20044;-85
2023/04/30 08:02:03;;;;;;;24.42;6.22;;;;;;;8.49;100.00;101142.69;5110032;28;20121;-84
2023/04/30 08:04:30;;;;;;;19.17;4.80;;;;;;;8.33;100.00;101114.28;5112465;28;20131;-85
2023/04/30 08:06:57;;;;;;;24.23;5.15;;;;;;;8.26;100.00;101111.88;5103376;28;20076;-87
2023/04/30 08:09:24;;;;;;;13.90;4.38;;;;;;;8.45;100.00;101128.84;5101480;28;20052;-85
2023/04/30 08:11:51;;;;;;;21.23;4.43;;;;;;;8.38;100.00;101097.69;5112101;28;20052;-85
2023/04/30 08:14:20;;;;;;;18.60;5.40;;;;;;;8.66;100.00;101151.00;5112117;28;20150;-85
2023/04/30 08:16:46;;;;;;;16.80;5.45;;;;;;;8.32;100.00;101116.94;5109173;28;20910;-85
2023/04/30 08:19:13;;;;;;;15.07;4.93;;;;;;;8.37;100.00;101109.88;5107403;28;20059;-84
2023/04/30 08:21:40;;;;;;;15.82;5.13;;;;;;;8.46;100.00;101127.94;5110044;28;20043;-85
2023/04/30 08:24:07;;;;;;;18.77;6.03;;;;;;;8.56;100.00;101136.44;5111358;28;20485;-85
2023/04/30 08:26:34;;;;;;;14.07;4.68;;;;;;;8.90;100.00;101164.38;5109840;28;20040;-85
2023/04/30 08:29:01;;;;;;;22.60;6.53;;;;;;;8.45;100.00;101128.00;5107471;28;20055;-84
2023/04/30 08:31:27;;;;;;;18.20;5.22;;;;;;;8.74;100.00;101164.72;5098397;28;20420;-84
2023/04/30 08:33:54;;;;;;;17.15;5.28;;;;;;;8.77;100.00;101163.81;5111827;28;20052;-84
2023/04/30 08:36:24;;;;;;;19.02;5.60;;;;;;;8.67;100.00;101128.38;5113517;28;20047;-84
2023/04/30 08:38:51;;;;;;;21.85;6.38;;;;;;;8.61;100.00;101123.28;5108320;28;20048;-84
2023/04/30 08:41:21;;;;;;;19.88;8.13;;;;;;;8.52;100.00;101095.66;5108841;28;20052;-84
2023/04/30 08:43:52;;;;;;;24.60;7.68;;;;;;;8.73;100.00;101157.81;5101915;28;20048;-84
2023/04/30 08:46:20;;;;;;;28.67;9.40;;;;;;;8.54;100.00;101112.13;5105943;28;20044;-83
2023/04/30 08:48:47;;;;;;;23.30;8.75;;;;;;;8.80;100.00;101136.75;5105465;28;20428;-85
2023/04/30 08:51:14;;;;;;;19.05;6.10;;;;;;;8.67;100.00;101116.16;5109480;28;20428;-83
2023/04/30 08:53:43;;;;;;;30.23;8.18;;;;;;;8.83;100.00;101166.25;5110555;28;20044;-84
2023/04/30 08:56:10;;;;;;;28.67;7.35;;;;;;;8.88;100.00;101163.56;5112240;28;20039;-84
2023/04/30 08:58:38;;;;;;;20.10;6.53;;;;;;;8.95;100.00;101146.84;5102716;28;20469;-84
2023/04/30 09:01:08;;;;;;;21.90;5.55;;;;;;;9.01;100.00;101112.75;5112450;28;20089;-84
2023/04/30 09:03:35;;;;;;;26.38;8.23;;;;;;;8.91;100.00;101138.22;5107278;28;20048;-83
2023/04/30 09:06:03;;;;;;;29.77;8.65;;;;;;;8.64;100.00;101097.09;5103667;28;20044;-83
2023/04/30 09:08:45;;;;;;;22.02;7.13;;;;;;;8.66;100.00;101070.09;5105759;28;20546;-84
2023/04/30 09:11:24;;;;;;;23.20;6.00;;;;;;;9.19;100.00;101153.22;5103405;28;20040;-84
2023/04/30 09:13:56;;;;;;;26.70;7.63;;;;;;;9.04;100.00;101083.06;5109538;28;20061;-83
2023/04/30 09:16:24;;;;;;;24.10;7.47;;;;;;;9.36;100.00;101150.16;5111865;28;20081;-85
2023/04/30 09:18:51;;;;;;;31.15;7.97;;;;;;;9.04;100.00;101119.63;5111717;28;20052;-85
2023/04/30 09:21:38;;;;;;;29.52;9.27;;;;;;;9.28;100.00;101145.16;5111605;28;20050;-84
2023/04/30 09:24:05;;;;;;;25.25;7.22;;;;;;;9.15;100.00;101098.47;5104579;28;20055;-84
2023/04/30 09:26:35;;;;;;;27.42;6.65;;;;;;;9.24;100.00;101098.22;5109997;28;20519;-85
2023/04/30 09:29:06;;;;;;;23.75;7.20;;;;;;;9.46;100.00;101115.06;5102898;28;20063;-86
2023/04/30 09:31:35;;;;;;;31.98;7.97;;;;;;;9.49;100.00;101120.22;5111122;28;20048;-84
2023/04/30 09:34:03;;;;;;;20.95;5.57;;;;;;;9.40;100.00;101096.94;5101074;28;20048;-84
2023/04/30 09:36:30;;;;;;;17.98;6.43;;;;;;;9.15;100.00;101083.63;5112961;28;20062;-85
2023/04/30 09:39:12;;;;;;;33.50;8.48;;;;;;;9.46;100.00;101101.13;5098817;28;20570;-84
2023/04/30 09:41:41;;;;;;;27.23;7.22;;;;;;;9.46;100.00;101104.59;5098492;28;20135;-84
2023/04/30 09:44:29;;;;;;;19.67;6.47;;;;;;;9.21;100.00;101069.59;5110518;28;20055;-85
2023/04/30 09:46:57;;;;;;;32.33;7.82;;;;;;;9.27;100.00;101093.78;5108474;28;20123;-86
2023/04/30 09:49:25;;;;;;;20.20;6.18;;;;;;;9.13;100.00;101041.03;5126670;27;20044;-86
2023/04/30 09:51:55;;;;;;;17.92;5.15;;;;;;;9.66;100.00;101111.88;5100495;28;20051;-86
2023/04/30 09:54:28;;;;;;;22.02;8.20;;;;;;;9.55;100.00;101115.72;5110645;28;20085;-85
2023/04/30 09:57:00;;;;;;;20.27;8.00;;;;;;;9.24;100.00;101101.72;5107862;28;20047;-87
2023/04/30 09:59:30;;;;;;;30.17;8.18;;;;;;;9.27;100.00;101072.00;5102712;28;20058;-86
2023/04/30 10:01:59;;;;;;;21.15;6.55;;;;;;;9.38;100.00;101074.34;5112522;28;20043;-85
2023/04/30 10:04:31;;;;;;;20.10;7.70;;;;;;;9.68;100.00;101119.69;5110911;28;20090;-86
2023/04/30 10:07:00;;;;;;;22.30;5.57;;;;;;;9.52;100.00;101071.34;5114277;28;20659;-86
2023/04/30 10:09:35;;;;;;;33.50;8.50;;;;;;;9.65;100.00;101109.31;5112655;28;20047;-84
2023/04/30 10:12:06;;;;;;;23.27;7.57;;;;;;;9.39;100.00;101063.84;5104462;28;20048;-84
2023/04/30 10:14:34;;;;;;;26.42;8.35;;;;;;;9.17;100.00;101057.47;5110913;28;20055;-86
2023/04/30 10:17:12;;;;;;;25.50;8.75;;;;;;;8.99;100.00;101017.88;5097565;28;20051;-86
2023/04/30 10:19:45;;;;;;;20.45;7.43;;;;;;;9.36;100.00;101100.50;5110866;28;20052;-81
2023/04/30 10:22:14;;;;;;;21.77;7.60;;;;;;;9.23;100.00;101086.91;5110598;28;20104;-82
2023/04/30 10:24:43;;;;;;;27.40;7.40;;;;;;;9.36;100.00;101099.66;5105691;28;20048;-82
2023/04/30 10:27:10;;;;;;;18.63;6.60;;;;;;;9.32;100.00;101052.69;5109655;28;20063;-84
2023/04/30 10:29:37;;;;;;;18.88;7.00;;;;;;;9.71;100.00;101106.53;5112331;28;20048;-82
2023/04/30 10:32:06;;;;;;;23.77;7.95;;;;;;;9.35;100.00;101057.00;5114612;28;20054;-85
2023/04/30 10:34:49;;;;;;;22.38;6.50;;;;;;;9.75;100.00;101105.53;5115086;28;20054;-84
2023/04/30 10:37:25;;;;;;;25.83;8.50;;;;;;;9.86;100.00;101097.38;5103770;28;20046;-85
2023/04/30 10:39:53;;;;;;;26.55;9.45;;;;;;;9.53;100.00;101078.31;5109304;28;20562;-84
2023/04/30 10:42:23;;;;;;;21.48;7.68;;;;;;;9.66;100.00;101046.53;5109488;28;20043;-83
2023/04/30 10:44:50;;;;;;;23.33;7.07;;;;;;;9.81;100.00;101052.19;5112457;28;20461;-84
2023/04/30 10:47:20;;;;;;;25.67;8.10;;;;;;;9.99;100.00;101087.44;5110955;28;20047;-89
2023/04/30 10:49:50;;;;;;;22.70;7.97;;;;;;;10.10;100.00;101082.75;5115886;28;20047;-89
2023/04/30 10:52:28;;;;;;;21.38;6.85;;;;;;;10.00;100.00;101016.75;5115568;28;20096;-89
2023/04/30 10:54:55;;;;;;;26.77;10.27;;;;;;;10.01;100.00;101056.88;5116137;28;20061;-87
2023/04/30 10:57:22;;;;;;;27.67;8.20;;;;;;;10.08;100.00;101046.16;5121686;28;20048;-89
2023/04/30 11:00:08;;;;;;;26.33;7.95;;;;;;;10.42;100.00;101071.31;5114167;28;20445;-89
2023/04/30 11:02:42;;;;;;;20.20;9.68;;;;;;;9.96;100.00;101012.53;5110900;27;20048;-83
2023/04/30 11:05:10;;;;;;;20.45;7.90;;;;;;;10.49;100.00;101064.13;5115149;28;20044;-82
2023/04/30 11:08:05;;;;;;;20.83;7.80;;;;;;;10.34;100.00;101002.66;5111503;27;20500;-86
2023/04/30 11:10:33;;;;;;;22.60;7.75;;;;;;;10.40;100.00;101064.41;5113141;28;20376;-86
2023/04/30 11:13:05;;;;;;;19.88;7.68;;;;;;;10.53;100.00;101034.31;5113730;28;20067;-88
2023/04/30 11:15:44;;;;;;;23.75;8.05;;;;;;;10.37;100.00;100999.06;5107616;28;20451;-86
2023/04/30 11:18:12;;;;;;;19.90;6.65;;;;;;;10.46;100.00;100993.53;5113382;28;20150;-86
2023/04/30 11:20:43;;;;;;;21.23;7.90;;;;;;;10.73;100.00;101017.94;5113452;28;20048;-84
2023/04/30 11:23:15;;;;;;;22.77;8.75;;;;;;;10.85;100.00;101048.09;5108984;28;20409;-83
2023/04/30 11:26:06;;;;;;;24.30;8.20;;;;;;;10.21;100.00;100969.88;5108720;28;20063;-85